createdAt,value
2023-04-27T00:02:21.214Z,6.10
2023-04-27T00:04:49.578Z,6.10
2023-04-27T00:07:18.036Z,6.40
2023-04-27T00:09:46.364Z,6.00
2023-04-27T00:12:14.609Z,5.90
2023-04-27T00:14:44.098Z,6.00
2023-04-27T00:17:12.174Z,6.00
2023-04-27T00:19:41.892Z,6.00
2023-04-27T00:22:10.215Z,6.00
2023-04-27T00:24:38.217Z,6.10
2023-04-27T00:27:08.068Z,6.20
2023-04-27T00:29:36.114Z,6.20
2023-04-27T00:32:05.914Z,6.30
2023-04-27T00:34:34.033Z,6.30
2023-04-27T00:37:02.122Z,6.30
2023-04-27T00:39:30.181Z,6.50
2023-04-27T00:41:58.322Z,6.30
2023-04-27T00:44:29.060Z,6.40
2023-04-27T00:46:58.810Z,6.40
2023-04-27T00:49:28.798Z,6.50
2023-04-27T00:51:57.289Z,6.50
2023-04-27T00:54:25.932Z,6.50
2023-04-27T00:56:55.446Z,6.60
2023-04-27T00:59:23.716Z,6.60
2023-04-27T01:01:53.735Z,6.60
2023-04-27T01:04:22.044Z,6.60
2023-04-27T01:06:51.727Z,6.60
2023-04-27T01:09:20.287Z,7.00
2023-04-27T01:11:51.228Z,6.60
2023-04-27T01:14:19.282Z,6.60
2023-04-27T01:16:47.436Z,6.60
2023-04-27T01:19:15.904Z,6.60
2023-04-27T01:21:44.614Z,6.60
2023-04-27T01:24:14.138Z,6.60
2023-04-27T01:26:42.212Z,6.60
2023-04-27T01:29:11.731Z,6.70
2023-04-27T01:31:40.484Z,6.60
2023-04-27T01:34:08.588Z,6.60
2023-04-27T01:36:37.385Z,6.60
2023-04-27T01:39:09.293Z,7.00
2023-04-27T01:41:38.883Z,6.60
2023-04-27T01:44:07.165Z,6.60
2023-04-27T01:46:35.469Z,6.50
2023-04-27T01:49:03.694Z,6.50
2023-04-27T01:51:33.018Z,6.50
2023-04-27T01:54:01.552Z,6.90
2023-04-27T01:56:29.676Z,6.50
2023-04-27T01:58:59.095Z,6.50
2023-04-27T02:01:28.143Z,6.90
2023-04-27T02:03:56.332Z,6.50
2023-04-27T02:06:24.537Z,6.50
2023-04-27T02:08:52.669Z,6.50
2023-04-27T02:11:20.679Z,6.50
2023-04-27T02:13:51.809Z,6.40
2023-04-27T02:16:21.844Z,6.40
2023-04-27T02:18:50.192Z,6.40
2023-04-27T02:21:18.268Z,6.40
2023-04-27T02:23:47.068Z,6.40
2023-04-27T02:26:19.546Z,6.40
2023-04-27T02:28:48.128Z,6.40
2023-04-27T02:31:17.008Z,6.40
2023-04-27T02:33:48.378Z,6.70
2023-04-27T02:36:16.352Z,6.40
2023-04-27T02:38:44.462Z,6.30
2023-04-27T02:41:12.672Z,6.30
2023-04-27T02:43:40.704Z,6.80
2023-04-27T02:46:08.767Z,6.30
2023-04-27T02:48:36.829Z,6.30
2023-04-27T02:51:07.694Z,6.30
2023-04-27T02:53:37.508Z,6.30
2023-04-27T02:56:06.709Z,6.40
2023-04-27T02:58:35.073Z,6.30
2023-04-27T03:01:03.612Z,6.30
2023-04-27T03:03:32.003Z,6.30
2023-04-27T03:06:00.276Z,6.30
2023-04-27T03:08:29.913Z,6.30
2023-04-27T03:10:59.355Z,6.30
2023-04-27T03:13:28.056Z,6.30
2023-04-27T03:15:56.169Z,6.60
2023-04-27T03:18:24.307Z,6.20
2023-04-27T03:20:52.385Z,6.60
2023-04-27T03:23:20.723Z,6.20
2023-04-27T03:25:50.220Z,6.10
2023-04-27T03:28:18.237Z,6.10
2023-04-27T03:30:46.871Z,6.10
2023-04-27T03:33:15.676Z,6.10
2023-04-27T03:35:56.409Z,6.10
2023-04-27T03:38:25.013Z,6.10
2023-04-27T03:40:55.207Z,6.10
2023-04-27T03:43:24.356Z,6.10
2023-04-27T03:45:52.835Z,6.10
2023-04-27T03:48:21.736Z,6.10
2023-04-27T03:50:52.709Z,6.10
2023-04-27T03:53:20.898Z,6.10
2023-04-27T03:55:49.783Z,6.10
2023-04-27T03:58:21.959Z,6.10
2023-04-27T04:01:19.687Z,6.00
2023-04-27T04:03:48.677Z,6.30
2023-04-27T04:06:17.026Z,6.00
2023-04-27T04:08:46.836Z,5.80
2023-04-27T04:11:14.916Z,5.80
2023-04-27T04:13:44.278Z,5.70
2023-04-27T04:16:13.683Z,5.70
2023-04-27T04:18:42.184Z,5.90
2023-04-27T04:21:11.589Z,6.00
2023-04-27T04:23:41.327Z,5.50
2023-04-27T04:26:09.985Z,5.40
2023-04-27T04:28:38.450Z,5.40
2023-04-27T04:31:09.753Z,5.60
2023-04-27T04:33:41.873Z,5.40
2023-04-27T04:36:10.926Z,5.50
2023-04-27T04:38:39.255Z,5.60
2023-04-27T04:41:07.216Z,5.60
2023-04-27T04:43:35.339Z,5.80
2023-04-27T04:46:07.938Z,5.70
2023-04-27T04:48:35.943Z,5.80
2023-04-27T04:51:06.138Z,5.80
2023-04-27T04:53:34.886Z,5.90
2023-04-27T04:56:10.150Z,6.00
2023-04-27T04:58:38.298Z,6.10
2023-04-27T05:01:08.327Z,6.20
2023-04-27T05:03:36.441Z,6.20
2023-04-27T05:06:04.732Z,6.30
2023-04-27T05:08:32.695Z,6.30
2023-04-27T05:11:00.617Z,6.40
2023-04-27T05:13:29.056Z,6.50
2023-04-27T05:15:57.084Z,6.60
2023-04-27T05:18:28.083Z,6.80
2023-04-27T05:20:58.818Z,6.80
2023-04-27T05:23:27.260Z,6.90
2023-04-27T05:25:55.372Z,7.00
2023-04-27T05:28:23.400Z,6.90
2023-04-27T05:30:51.410Z,6.90
2023-04-27T05:33:19.296Z,6.90
2023-04-27T05:35:48.580Z,7.00
2023-04-27T05:38:19.243Z,7.00
2023-04-27T05:40:55.622Z,7.00
2023-04-27T05:43:23.666Z,7.10
2023-04-27T05:45:51.830Z,7.10
2023-04-27T05:48:19.997Z,7.10
2023-04-27T05:51:00.339Z,7.00
2023-04-27T05:53:28.302Z,7.00
2023-04-27T05:56:00.955Z,6.90
2023-04-27T05:58:29.043Z,6.90
2023-04-27T06:00:57.553Z,7.00
2023-04-27T06:03:25.762Z,7.00
2023-04-27T06:05:58.901Z,7.00
2023-04-27T06:08:27.961Z,7.10
2023-04-27T06:10:55.970Z,7.20
2023-04-27T06:13:23.992Z,7.30
2023-04-27T06:15:52.038Z,7.50
2023-04-27T06:18:20.021Z,7.50
2023-04-27T06:20:47.991Z,7.60
2023-04-27T06:23:17.384Z,7.70
2023-04-27T06:25:45.461Z,7.70
2023-04-27T06:28:13.449Z,7.80
2023-04-27T06:30:41.398Z,7.80
2023-04-27T06:33:10.233Z,8.00
2023-04-27T06:35:38.437Z,8.00
2023-04-27T06:38:07.693Z,8.10
2023-04-27T06:40:38.011Z,8.20
2023-04-27T06:43:06.786Z,8.20
2023-04-27T06:45:34.898Z,8.20
2023-04-27T06:48:02.985Z,8.30
2023-04-27T06:50:31.048Z,8.30
2023-04-27T06:52:59.024Z,8.40
2023-04-27T06:55:27.034Z,8.50
2023-04-27T06:57:56.346Z,8.60
2023-04-27T07:00:24.601Z,8.70
2023-04-27T07:02:52.793Z,8.80
2023-04-27T07:05:24.083Z,9.00
2023-04-27T07:07:52.018Z,9.20
2023-04-27T07:10:20.119Z,9.40
2023-04-27T07:12:48.049Z,9.70
2023-04-27T07:15:17.342Z,10.20
2023-04-27T07:17:45.350Z,10.60
2023-04-27T07:20:14.221Z,10.90
2023-04-27T07:22:42.232Z,11.20
2023-04-27T07:25:11.354Z,11.50
2023-04-27T07:27:39.761Z,11.80
2023-04-27T07:30:10.271Z,12.10
2023-04-27T07:32:41.705Z,12.20
2023-04-27T07:35:10.828Z,12.50
2023-04-27T07:37:40.369Z,12.60
2023-04-27T07:40:16.279Z,12.70
2023-04-27T07:42:44.778Z,13.00
2023-04-27T07:45:13.043Z,13.20
2023-04-27T07:47:42.564Z,13.40
2023-04-27T07:50:12.673Z,13.50
2023-04-27T07:52:40.718Z,13.60
2023-04-27T07:55:09.844Z,13.70
2023-04-27T07:57:37.786Z,13.80
2023-04-27T08:00:09.001Z,14.00
2023-04-27T08:02:43.466Z,14.20
2023-04-27T08:05:12.341Z,14.40
2023-04-27T08:07:44.657Z,14.60
2023-04-27T08:10:13.172Z,14.60
2023-04-27T08:12:41.184Z,14.70
2023-04-27T08:15:11.633Z,14.70
2023-04-27T08:17:41.150Z,14.80
2023-04-27T08:20:12.367Z,14.90
2023-04-27T08:22:40.428Z,15.10
2023-04-27T08:25:09.554Z,15.30
2023-04-27T08:27:38.674Z,15.40
2023-04-27T08:30:08.503Z,15.60
2023-04-27T08:32:36.589Z,15.70
2023-04-27T08:35:04.855Z,15.70
2023-04-27T08:37:34.148Z,15.80
2023-04-27T08:40:02.136Z,15.80
2023-04-27T08:42:30.650Z,16.00
2023-04-27T08:44:58.573Z,16.10
2023-04-27T08:47:39.012Z,16.30
2023-04-27T08:50:11.197Z,16.40
2023-04-27T08:52:40.638Z,16.50
2023-04-27T08:55:09.719Z,16.50
2023-04-27T08:57:37.801Z,16.60
2023-04-27T09:00:12.806Z,16.70
2023-04-27T09:02:47.054Z,16.70
2023-04-27T09:05:19.214Z,16.80
2023-04-27T09:08:04.846Z,16.90
2023-04-27T09:10:44.975Z,17.00
2023-04-27T09:13:12.937Z,17.00
2023-04-27T09:15:47.812Z,17.10
2023-04-27T09:18:18.278Z,17.10
2023-04-27T09:20:47.692Z,17.20
2023-04-27T09:23:28.816Z,17.20
2023-04-27T09:25:57.561Z,17.30
2023-04-27T09:28:27.470Z,17.30
2023-04-27T09:30:56.544Z,17.30
2023-04-27T09:33:25.373Z,17.30
2023-04-27T09:35:53.730Z,17.30
2023-04-27T09:38:23.371Z,17.30
2023-04-27T09:40:54.310Z,17.40
2023-04-27T09:43:23.246Z,17.50
2023-04-27T09:45:51.347Z,17.50
2023-04-27T09:48:19.513Z,17.30
2023-04-27T09:50:48.041Z,17.30
2023-04-27T09:53:18.737Z,17.30
2023-04-27T09:55:51.915Z,17.50
2023-04-27T09:58:47.074Z,17.40
2023-04-27T10:01:24.748Z,17.60
2023-04-27T10:04:06.536Z,17.70
2023-04-27T10:07:01.832Z,17.90
2023-04-27T10:09:37.848Z,17.90
2023-04-27T10:12:17.075Z,18.00
2023-04-27T10:14:54.570Z,18.10
2023-04-27T10:17:30.149Z,17.90
2023-04-27T10:19:59.605Z,17.70
2023-04-27T10:22:40.491Z,17.50
2023-04-27T10:25:17.916Z,17.30
2023-04-27T10:27:49.513Z,17.10
2023-04-27T10:30:20.422Z,17.10
2023-04-27T10:32:53.464Z,17.00
2023-04-27T10:35:22.595Z,17.00
2023-04-27T10:37:52.101Z,17.00
2023-04-27T10:40:20.339Z,16.90
2023-04-27T10:42:49.499Z,17.00
2023-04-27T10:45:31.455Z,17.00
2023-04-27T10:48:01.867Z,16.90
2023-04-27T10:50:32.039Z,17.10
2023-04-27T10:53:05.680Z,17.40
2023-04-27T10:55:35.020Z,17.70
2023-04-27T10:58:04.674Z,18.10
2023-04-27T11:00:36.622Z,18.60
2023-04-27T11:03:17.114Z,18.70
2023-04-27T11:05:46.738Z,18.90
2023-04-27T11:08:16.594Z,19.10
2023-04-27T11:10:46.299Z,19.40
2023-04-27T11:13:16.564Z,19.60
2023-04-27T11:15:51.108Z,19.60
2023-04-27T11:18:20.616Z,19.60
2023-04-27T11:20:50.921Z,19.50
2023-04-27T11:23:26.906Z,19.30
2023-04-27T11:25:55.300Z,19.20
2023-04-27T11:28:26.187Z,19.20
2023-04-27T11:30:59.584Z,19.10
2023-04-27T11:33:28.208Z,18.90
2023-04-27T11:35:57.454Z,18.80
2023-04-27T11:38:26.546Z,18.50
2023-04-27T11:41:02.753Z,18.50
2023-04-27T11:43:30.962Z,18.30
2023-04-27T11:46:04.075Z,18.20
2023-04-27T11:48:32.120Z,18.20
2023-04-27T11:51:01.349Z,17.90
2023-04-27T11:53:34.308Z,17.80
2023-04-27T11:56:05.154Z,17.80
2023-04-27T11:58:35.049Z,17.80
2023-04-27T12:01:05.152Z,17.90
2023-04-27T12:03:34.361Z,18.10
2023-04-27T12:08:34.798Z,18.60
2023-04-27T12:11:02.940Z,18.60
2023-04-27T12:13:31.615Z,18.70
2023-04-27T12:16:01.019Z,18.80
2023-04-27T12:18:31.169Z,18.90
2023-04-27T12:21:03.106Z,18.90
2023-04-27T12:23:31.617Z,18.90
2023-04-27T12:25:59.689Z,19.00
2023-04-27T12:28:29.234Z,18.90
2023-04-27T12:31:00.400Z,18.80
2023-04-27T12:33:30.081Z,18.80
2023-04-27T12:35:58.156Z,18.80
2023-04-27T12:38:26.454Z,18.90
2023-04-27T12:40:54.768Z,19.00
2023-04-27T12:43:22.933Z,19.30
2023-04-27T12:45:51.078Z,19.60
2023-04-27T12:48:19.618Z,19.80
2023-04-27T12:50:49.049Z,20.00
2023-04-27T12:53:17.277Z,20.10
2023-04-27T12:55:46.981Z,20.20
2023-04-27T12:58:15.140Z,20.10
2023-04-27T13:00:43.264Z,20.00
2023-04-27T13:03:11.820Z,19.90
2023-04-27T13:05:39.988Z,19.90
2023-04-27T13:08:09.431Z,19.90
2023-04-27T13:10:38.782Z,19.70
2023-04-27T13:13:08.906Z,19.70
2023-04-27T13:15:37.724Z,19.50
2023-04-27T13:18:06.599Z,19.40
2023-04-27T13:20:34.837Z,19.20
2023-04-27T13:23:05.460Z,19.00
2023-04-27T13:25:38.045Z,18.90
2023-04-27T13:28:09.120Z,18.90
2023-04-27T13:30:37.375Z,19.00
2023-04-27T13:33:20.962Z,19.10
2023-04-27T13:35:50.415Z,19.20
2023-04-27T13:38:21.467Z,19.30
2023-04-27T13:40:50.980Z,19.30
2023-04-27T13:43:19.695Z,19.40
2023-04-27T13:45:49.462Z,19.30
2023-04-27T13:48:17.577Z,19.20
2023-04-27T13:50:45.729Z,19.20
2023-04-27T13:53:17.947Z,19.10
2023-04-27T13:55:47.811Z,19.10
2023-04-27T13:58:17.429Z,19.10
2023-04-27T14:00:49.150Z,19.10
2023-04-27T14:03:17.672Z,19.10
2023-04-27T14:05:51.290Z,19.00
2023-04-27T14:08:19.898Z,19.00
2023-04-27T14:10:48.155Z,18.90
2023-04-27T14:13:19.203Z,18.90
2023-04-27T14:15:47.278Z,18.80
2023-04-27T14:18:15.681Z,18.90
2023-04-27T14:20:46.939Z,18.90
2023-04-27T14:23:15.011Z,19.10
2023-04-27T14:25:43.296Z,19.00
2023-04-27T14:28:14.780Z,19.00
2023-04-27T14:30:44.215Z,18.80
2023-04-27T14:33:12.578Z,19.00
2023-04-27T14:35:40.749Z,18.60
2023-04-27T14:38:08.850Z,18.50
2023-04-27T14:40:36.986Z,18.40
2023-04-27T14:43:05.097Z,18.30
2023-04-27T14:45:43.736Z,18.20
2023-04-27T14:48:20.411Z,18.20
2023-04-27T14:50:48.766Z,18.30
2023-04-27T14:53:17.291Z,18.30
2023-04-27T14:55:48.290Z,18.40
2023-04-27T14:58:16.506Z,18.50
2023-04-27T15:00:44.624Z,18.60
2023-04-27T15:03:12.937Z,18.60
2023-04-27T15:05:42.584Z,18.80
2023-04-27T15:08:11.935Z,18.90
2023-04-27T15:10:42.749Z,19.00
2023-04-27T15:13:10.888Z,19.00
2023-04-27T15:15:39.315Z,19.00
2023-04-27T15:18:07.579Z,19.00
2023-04-27T15:20:35.720Z,19.00
2023-04-27T15:23:05.437Z,19.10
2023-04-27T15:25:36.012Z,19.10
2023-04-27T15:28:04.126Z,19.10
2023-04-27T15:30:32.280Z,19.00
2023-04-27T15:33:00.445Z,18.90
2023-04-27T15:35:28.610Z,18.80
2023-04-27T15:37:59.055Z,18.60
2023-04-27T15:40:28.631Z,18.70
2023-04-27T15:42:56.882Z,18.50
2023-04-27T15:45:24.935Z,18.40
2023-04-27T15:47:53.043Z,18.40
2023-04-27T15:50:21.280Z,18.40
2023-04-27T15:52:49.632Z,18.40
2023-04-27T15:55:17.809Z,18.40
2023-04-27T15:57:47.138Z,18.40
2023-04-27T16:00:19.048Z,18.40
2023-04-27T16:02:47.636Z,18.40
2023-04-27T16:05:16.483Z,18.40
2023-04-27T16:07:45.832Z,18.50
2023-04-27T16:10:14.386Z,18.60
2023-04-27T16:12:42.435Z,18.60
2023-04-27T16:15:12.630Z,18.70
2023-04-27T16:17:41.010Z,18.70
2023-04-27T16:20:12.435Z,18.70
2023-04-27T16:22:40.727Z,18.70
2023-04-27T16:25:10.951Z,18.70
2023-04-27T16:27:39.346Z,18.70
2023-04-27T16:30:08.443Z,18.80
2023-04-27T16:32:39.015Z,18.70
2023-04-27T16:35:07.980Z,18.60
2023-04-27T16:37:36.096Z,18.50
2023-04-27T16:40:06.983Z,18.50
2023-04-27T16:42:35.520Z,18.50
2023-04-27T16:45:03.812Z,18.40
2023-04-27T16:47:35.036Z,18.40
2023-04-27T16:50:04.812Z,18.40
2023-04-27T16:52:32.921Z,18.50
2023-04-27T16:55:01.019Z,18.60
2023-04-27T16:57:29.330Z,18.60
2023-04-27T17:00:01.957Z,18.60
2023-04-27T17:02:30.209Z,18.80
2023-04-27T17:04:59.548Z,19.00
2023-04-27T17:07:32.681Z,19.10
2023-04-27T17:10:01.335Z,19.20
2023-04-27T17:12:29.559Z,19.10
2023-04-27T17:14:57.716Z,19.00
2023-04-27T17:17:25.830Z,18.80
2023-04-27T17:19:53.934Z,18.60
2023-04-27T17:22:21.962Z,18.30
2023-04-27T17:24:51.536Z,18.00
2023-04-27T17:27:20.115Z,17.80
2023-04-27T17:29:48.219Z,17.60
2023-04-27T17:32:16.526Z,17.40
2023-04-27T17:34:45.271Z,17.30
2023-04-27T17:37:14.740Z,17.20
2023-04-27T17:39:42.768Z,17.20
2023-04-27T17:42:12.917Z,17.20
2023-04-27T17:44:42.210Z,17.10
2023-04-27T17:47:10.618Z,17.00
2023-04-27T17:49:41.533Z,16.90
2023-04-27T17:52:09.744Z,16.90
2023-04-27T17:54:37.893Z,16.80
2023-04-27T17:57:06.071Z,16.70
2023-04-27T17:59:37.365Z,16.60
2023-04-27T18:02:05.690Z,16.50
2023-04-27T18:04:33.972Z,16.40
2023-04-27T18:07:02.136Z,16.40
2023-04-27T18:09:32.719Z,16.40
2023-04-27T18:12:02.683Z,16.30
2023-04-27T18:14:31.063Z,16.20
2023-04-27T18:17:00.663Z,16.10
2023-04-27T18:19:28.742Z,16.00
2023-04-27T18:21:56.854Z,15.90
2023-04-27T18:24:25.335Z,15.90
2023-04-27T18:26:53.473Z,15.70
2023-04-27T18:29:21.587Z,15.60
2023-04-27T18:32:01.834Z,15.50
2023-04-27T18:34:31.322Z,15.50
2023-04-27T18:37:00.627Z,15.40
2023-04-27T18:39:28.860Z,15.40
2023-04-27T18:41:57.444Z,15.30
2023-04-27T18:44:25.555Z,15.30
2023-04-27T18:46:53.638Z,15.30
2023-04-27T18:49:21.800Z,15.20
2023-04-27T18:51:51.320Z,15.20
2023-04-27T18:54:19.495Z,15.30
2023-04-27T18:56:50.728Z,15.20
2023-04-27T18:59:18.763Z,15.20
2023-04-27T19:01:48.616Z,15.20
2023-04-27T19:04:17.417Z,15.10
2023-04-27T19:06:47.305Z,15.10
2023-04-27T19:09:18.267Z,15.10
2023-04-27T19:11:49.455Z,15.00
2023-04-27T19:14:20.766Z,15.00
2023-04-27T19:16:48.818Z,15.00
2023-04-27T19:19:17.449Z,15.00
2023-04-27T19:21:47.248Z,14.90
2023-04-27T19:24:17.430Z,14.90
2023-04-27T19:26:46.674Z,14.80
2023-04-27T19:29:14.927Z,14.80
2023-04-27T19:31:43.247Z,14.80
2023-04-27T19:34:11.404Z,14.60
2023-04-27T19:36:48.804Z,14.60
2023-04-27T19:39:20.634Z,14.50
2023-04-27T19:41:48.737Z,14.50
2023-04-27T19:44:16.824Z,14.40
2023-04-27T19:46:45.416Z,14.40
2023-04-27T19:49:14.312Z,14.40
2023-04-27T19:51:43.021Z,14.30
2023-04-27T19:54:11.707Z,14.20
2023-04-27T19:56:41.350Z,14.20
2023-04-27T19:59:09.625Z,14.20
2023-04-27T20:01:38.045Z,14.20
2023-04-27T20:04:06.694Z,14.00
2023-04-27T20:06:35.201Z,14.00
2023-04-27T20:09:03.861Z,14.00
2023-04-27T20:11:31.980Z,14.00
2023-04-27T20:14:01.437Z,14.00
2023-04-27T20:16:29.465Z,14.20
2023-04-27T20:18:57.546Z,14.10
2023-04-27T20:21:26.284Z,14.10
2023-04-27T20:23:54.334Z,14.10
2023-04-27T20:26:22.639Z,14.20
2023-04-27T20:28:52.635Z,14.30
2023-04-27T20:31:22.180Z,14.20
2023-04-27T20:33:50.368Z,14.30
2023-04-27T20:36:18.863Z,14.30
2023-04-27T20:38:48.791Z,14.20
2023-04-27T20:41:17.417Z,14.20
2023-04-27T20:43:45.581Z,14.20
2023-04-27T20:46:13.818Z,14.10
2023-04-27T20:48:43.358Z,14.10
2023-04-27T20:51:11.419Z,14.10
2023-04-27T20:53:40.071Z,14.10
2023-04-27T20:56:11.822Z,14.10
2023-04-27T20:58:39.878Z,14.00
2023-04-27T21:01:07.818Z,14.00
2023-04-27T21:03:36.118Z,14.10
2023-04-27T21:06:05.949Z,14.00
2023-04-27T21:08:34.770Z,14.10
2023-04-27T21:11:02.788Z,14.10
2023-04-27T21:13:30.802Z,14.10
2023-04-27T21:15:58.756Z,14.10
2023-04-27T21:18:30.174Z,14.10
2023-04-27T21:21:01.448Z,14.10
2023-04-27T21:23:30.775Z,14.10
2023-04-27T21:25:59.826Z,14.10
2023-04-27T21:28:27.888Z,14.10
2023-04-27T21:30:58.657Z,14.00
2023-04-27T21:33:26.690Z,14.00
2023-04-27T21:35:54.857Z,14.00
2023-04-27T21:38:22.825Z,14.00
2023-04-27T21:40:52.257Z,13.90
2023-04-27T21:43:20.446Z,13.90
2023-04-27T21:45:48.789Z,13.90
2023-04-27T21:48:16.825Z,13.80
2023-04-27T21:50:45.216Z,13.80
2023-04-27T21:53:13.244Z,13.80
2023-04-27T21:55:41.179Z,13.80
2023-04-27T21:58:10.556Z,13.80
2023-04-27T22:00:39.452Z,13.80
2023-04-27T22:03:07.618Z,13.80
2023-04-27T22:05:39.939Z,13.80
2023-04-27T22:08:08.984Z,13.80
2023-04-27T22:10:37.406Z,13.70
2023-04-27T22:13:17.708Z,13.70
2023-04-27T22:15:49.320Z,13.70
2023-04-27T22:18:17.760Z,13.70
2023-04-27T22:20:47.292Z,13.70
2023-04-27T22:23:15.414Z,13.60
2023-04-27T22:25:43.585Z,13.60
2023-04-27T22:28:12.151Z,13.50
2023-04-27T22:30:42.025Z,13.50
2023-04-27T22:33:11.847Z,13.50
2023-04-27T22:35:40.201Z,13.40
2023-04-27T22:38:08.455Z,13.40
2023-04-27T22:40:36.975Z,13.40
2023-04-27T22:43:04.949Z,13.40
2023-04-27T22:45:33.112Z,13.40
2023-04-27T22:48:01.239Z,13.30
2023-04-27T22:50:31.630Z,13.30
2023-04-27T22:53:00.547Z,13.30
2023-04-27T22:55:28.662Z,13.40
2023-04-27T22:57:56.795Z,13.20
2023-04-27T23:00:24.929Z,13.20
2023-04-27T23:02:53.290Z,13.20
2023-04-27T23:05:21.482Z,13.20
2023-04-27T23:07:51.754Z,13.10
2023-04-27T23:10:19.772Z,13.10
2023-04-27T23:12:47.992Z,13.10
2023-04-27T23:15:16.448Z,13.10
2023-04-27T23:17:44.538Z,13.00
2023-04-27T23:20:27.490Z,13.00
2023-04-27T23:22:58.374Z,13.00
2023-04-27T23:25:26.406Z,13.00
2023-04-27T23:27:54.441Z,13.00
2023-04-27T23:30:22.885Z,13.00
2023-04-27T23:32:50.919Z,13.00
2023-04-27T23:35:19.086Z,12.90
2023-04-27T23:37:47.143Z,12.90
2023-04-27T23:40:16.778Z,12.90
2023-04-27T23:42:44.903Z,12.80
2023-04-27T23:45:13.309Z,12.80
2023-04-27T23:47:41.554Z,12.80
2023-04-27T23:50:10.648Z,12.70
2023-04-27T23:52:38.638Z,12.70
2023-04-27T23:55:07.765Z,12.70
2023-04-27T23:57:37.201Z,12.60
